KNEL/NEL METAR and TAF weather

Enter ICAO airport designator
Station Type Date Time Source
KNEL METAR 2022/06/27 17:55 UTC NOAA

KNEL 271755Z VRB03KT 10SM OVC029 25/23 A2993 RMK AO2 RAB39E51 P0007 $


Station Type Date Time Source
KNEL Decoded METAR 2022/06/27 17:55 UTC NOAA

Lakehurst Naval Air Station, NJ, United States (KNEL) 40-02N 074-19W 24M
Jun 27, 2022 - 01:55 PM EDT / 2022.06.27 1755 UTC
Wind: Variable at 3 MPH (3 KT):0
Visibility: 10 mile(s):0
Sky conditions: overcast
Precipitation last hour: 0.07 inches
Temperature: 77 F (25 C)
Dew Point: 73 F (23 C)
Relative Humidity: 88%
Pressure (altimeter): 29.93 in. Hg (1013 hPa)
ob: KNEL 271755Z VRB03KT 10SM OVC029 25/23 A2993 RMK AO2 RAB39E51 P0007
cycle: 18

Station Type Date Time Source
KNEL TAF UTC NOAA

Error!

Example: see airport list